sensor_id;sensor_type;location;lat;lon;timestamp;pressure;altitude;pressure_sealevel;temperature;humidity
60642;BME280;46837;52.446;-1.930;2023-02-12T00:00:10;102348.12;;;9.73;64.46
60642;BME280;46837;52.446;-1.930;2023-02-12T00:01:11;102347.84;;;9.73;64.56
60642;BME280;46837;52.446;-1.930;2023-02-12T00:02:09;102348.22;;;9.72;64.66
60642;BME280;46837;52.446;-1.930;2023-02-12T00:03:09;102346.66;;;9.72;64.60
60642;BME280;46837;52.446;-1.930;2023-02-12T00:04:09;102345.70;;;9.74;64.48
60642;BME280;46837;52.446;-1.930;2023-02-12T00:05:09;102343.75;;;9.77;64.29
60642;BME280;46837;52.446;-1.930;2023-02-12T00:06:09;102345.79;;;9.79;64.25
60642;BME280;46837;52.446;-1.930;2023-02-12T00:07:09;102345.04;;;9.80;64.28
60642;BME280;46837;52.446;-1.930;2023-02-12T00:08:09;102346.45;;;9.78;64.27
60642;BME280;46837;52.446;-1.930;2023-02-12T00:09:09;102350.98;;;9.79;64.35
60642;BME280;46837;52.446;-1.930;2023-02-12T00:10:09;102349.91;;;9.81;64.28
60642;BME280;46837;52.446;-1.930;2023-02-12T00:11:13;102350.59;;;9.83;64.31
60642;BME280;46837;52.446;-1.930;2023-02-12T00:12:09;102348.52;;;9.84;64.28
60642;BME280;46837;52.446;-1.930;2023-02-12T00:13:09;102344.70;;;9.86;64.22
60642;BME280;46837;52.446;-1.930;2023-02-12T00:14:09;102340.88;;;9.83;64.21
60642;BME280;46837;52.446;-1.930;2023-02-12T00:15:09;102339.16;;;9.82;64.20
60642;BME280;46837;52.446;-1.930;2023-02-12T00:16:10;102342.53;;;9.82;64.21
60642;BME280;46837;52.446;-1.930;2023-02-12T00:17:09;102342.23;;;9.83;64.19
60642;BME280;46837;52.446;-1.930;2023-02-12T00:18:09;102343.82;;;9.83;64.11
60642;BME280;46837;52.446;-1.930;2023-02-12T00:19:09;102344.68;;;9.84;64.12
60642;BME280;46837;52.446;-1.930;2023-02-12T00:20:09;102347.74;;;9.85;64.02
60642;BME280;46837;52.446;-1.930;2023-02-12T00:21:09;102346.91;;;9.86;64.05
60642;BME280;46837;52.446;-1.930;2023-02-12T00:22:09;102345.25;;;9.84;64.07
60642;BME280;46837;52.446;-1.930;2023-02-12T00:23:09;102340.25;;;9.84;64.08
60642;BME280;46837;52.446;-1.930;2023-02-12T00:24:09;102336.21;;;9.82;64.13
60642;BME280;46837;52.446;-1.930;2023-02-12T00:25:09;102331.55;;;9.82;64.15
60642;BME280;46837;52.446;-1.930;2023-02-12T00:26:10;102331.27;;;9.82;64.06
60642;BME280;46837;52.446;-1.930;2023-02-12T00:27:09;102329.98;;;9.78;64.07
60642;BME280;46837;52.446;-1.930;2023-02-12T00:28:09;102330.43;;;9.78;64.05
60642;BME280;46837;52.446;-1.930;2023-02-12T00:29:09;102330.68;;;9.79;63.99
60642;BME280;46837;52.446;-1.930;2023-02-12T00:30:09;102333.89;;;9.80;64.06
60642;BME280;46837;52.446;-1.930;2023-02-12T00:31:10;102329.95;;;9.82;64.08
60642;BME280;46837;52.446;-1.930;2023-02-12T00:32:09;102335.57;;;9.81;63.95
60642;BME280;46837;52.446;-1.930;2023-02-12T00:33:09;102333.52;;;9.81;64.04
60642;BME280;46837;52.446;-1.930;2023-02-12T00:34:09;102339.03;;;9.83;64.10
60642;BME280;46837;52.446;-1.930;2023-02-12T00:35:09;102336.51;;;9.82;64.03
60642;BME280;46837;52.446;-1.930;2023-02-12T00:36:09;102339.49;;;9.82;64.04
60642;BME280;46837;52.446;-1.930;2023-02-12T00:37:09;102336.17;;;9.83;64.00
60642;BME280;46837;52.446;-1.930;2023-02-12T00:38:09;102333.97;;;9.81;63.97
60642;BME280;46837;52.446;-1.930;2023-02-12T00:39:09;102333.90;;;9.79;64.01
60642;BME280;46837;52.446;-1.930;2023-02-12T00:40:09;102331.03;;;9.80;64.05
60642;BME280;46837;52.446;-1.930;2023-02-12T00:41:09;102329.03;;;9.79;64.17
60642;BME280;46837;52.446;-1.930;2023-02-12T00:42:09;102329.24;;;9.75;64.12
60642;BME280;46837;52.446;-1.930;2023-02-12T00:43:09;102328.18;;;9.74;64.23
60642;BME280;46837;52.446;-1.930;2023-02-12T00:44:09;102326.32;;;9.71;64.46
60642;BME280;46837;52.446;-1.930;2023-02-12T00:45:09;102332.28;;;9.73;64.53
60642;BME280;46837;52.446;-1.930;2023-02-12T00:46:09;102333.11;;;9.76;64.47
60642;BME280;46837;52.446;-1.930;2023-02-12T00:47:09;102334.03;;;9.74;64.51
60642;BME280;46837;52.446;-1.930;2023-02-12T00:48:09;102334.09;;;9.76;64.64
60642;BME280;46837;52.446;-1.930;2023-02-12T00:49:09;102331.17;;;9.79;64.64
60642;BME280;46837;52.446;-1.930;2023-02-12T00:50:09;102330.75;;;9.80;64.51
60642;BME280;46837;52.446;-1.930;2023-02-12T00:51:09;102328.00;;;9.80;64.41
60642;BME280;46837;52.446;-1.930;2023-02-12T00:52:09;102324.84;;;9.81;64.33
60642;BME280;46837;52.446;-1.930;2023-02-12T00:53:09;102331.30;;;9.78;64.60
60642;BME280;46837;52.446;-1.930;2023-02-12T00:54:09;102332.16;;;9.77;64.75
60642;BME280;46837;52.446;-1.930;2023-02-12T00:55:09;102331.33;;;9.74;64.84
60642;BME280;46837;52.446;-1.930;2023-02-12T00:56:09;102335.46;;;9.75;64.98
60642;BME280;46837;52.446;-1.930;2023-02-12T00:57:09;102332.99;;;9.72;65.02
60642;BME280;46837;52.446;-1.930;2023-02-12T00:58:09;102329.17;;;9.73;65.08
60642;BME280;46837;52.446;-1.930;2023-02-12T00:59:09;102327.99;;;9.76;65.01
60642;BME280;46837;52.446;-1.930;2023-02-12T01:00:09;102326.56;;;9.76;64.87
60642;BME280;46837;52.446;-1.930;2023-02-12T01:01:09;102322.00;;;9.78;64.75
60642;BME280;46837;52.446;-1.930;2023-02-12T01:02:09;102324.64;;;9.80;64.70
60642;BME280;46837;52.446;-1.930;2023-02-12T01:03:09;102322.80;;;9.80;64.76
60642;BME280;46837;52.446;-1.930;2023-02-12T01:04:09;102324.72;;;9.80;64.76
60642;BME280;46837;52.446;-1.930;2023-02-12T01:05:09;102326.67;;;9.78;64.72
60642;BME280;46837;52.446;-1.930;2023-02-12T01:06:09;102324.58;;;9.78;64.87
60642;BME280;46837;52.446;-1.930;2023-02-12T01:07:09;102323.13;;;9.79;64.81
60642;BME280;46837;52.446;-1.930;2023-02-12T01:08:12;102325.97;;;9.79;64.77
60642;BME280;46837;52.446;-1.930;2023-02-12T01:09:09;102331.30;;;9.77;64.80
60642;BME280;46837;52.446;-1.930;2023-02-12T01:10:09;102330.05;;;9.76;64.80
60642;BME280;46837;52.446;-1.930;2023-02-12T01:11:10;102330.35;;;9.74;64.90
60642;BME280;46837;52.446;-1.930;2023-02-12T01:12:09;102328.57;;;9.76;64.94
60642;BME280;46837;52.446;-1.930;2023-02-12T01:13:11;102326.54;;;9.74;64.88
60642;BME280;46837;52.446;-1.930;2023-02-12T01:14:09;102325.77;;;9.73;64.86
60642;BME280;46837;52.446;-1.930;2023-02-12T01:15:09;102325.47;;;9.70;64.80
60642;BME280;46837;52.446;-1.930;2023-02-12T01:16:14;102324.62;;;9.68;64.87
60642;BME280;46837;52.446;-1.930;2023-02-12T01:17:09;102323.44;;;9.68;64.93
60642;BME280;46837;52.446;-1.930;2023-02-12T01:18:09;102327.46;;;9.66;64.81
60642;BME280;46837;52.446;-1.930;2023-02-12T01:19:09;102328.03;;;9.68;64.85
60642;BME280;46837;52.446;-1.930;2023-02-12T01:20:10;102329.94;;;9.65;65.18
60642;BME280;46837;52.446;-1.930;2023-02-12T01:21:14;102329.52;;;9.66;65.17
60642;BME280;46837;52.446;-1.930;2023-02-12T01:22:09;102323.31;;;9.63;65.25
60642;BME280;46837;52.446;-1.930;2023-02-12T01:23:10;102320.91;;;9.58;65.13
60642;BME280;46837;52.446;-1.930;2023-02-12T01:24:09;102321.13;;;9.60;65.10
60642;BME280;46837;52.446;-1.930;2023-02-12T01:25:09;102323.07;;;9.53;65.02
60642;BME280;46837;52.446;-1.930;2023-02-12T01:26:09;102326.32;;;9.50;65.20
60642;BME280;46837;52.446;-1.930;2023-02-12T01:27:09;102330.84;;;9.48;65.21
60642;BME280;46837;52.446;-1.930;2023-02-12T01:28:09;102330.29;;;9.46;65.29
60642;BME280;46837;52.446;-1.930;2023-02-12T01:29:09;102328.74;;;9.44;65.24
60642;BME280;46837;52.446;-1.930;2023-02-12T01:30:11;102331.54;;;9.49;65.33
60642;BME280;46837;52.446;-1.930;2023-02-12T01:31:13;102327.66;;;9.51;65.24
60642;BME280;46837;52.446;-1.930;2023-02-12T01:32:09;102321.89;;;9.52;65.17
60642;BME280;46837;52.446;-1.930;2023-02-12T01:33:09;102321.74;;;9.50;65.09
60642;BME280;46837;52.446;-1.930;2023-02-12T01:34:09;102314.96;;;9.49;65.05
60642;BME280;46837;52.446;-1.930;2023-02-12T01:35:09;102318.35;;;9.50;65.20
60642;BME280;46837;52.446;-1.930;2023-02-12T01:36:09;102324.44;;;9.51;65.04
60642;BME280;46837;52.446;-1.930;2023-02-12T01:37:09;102326.57;;;9.45;65.10
60642;BME280;46837;52.446;-1.930;2023-02-12T01:38:09;102327.34;;;9.46;65.32
60642;BME280;46837;52.446;-1.930;2023-02-12T01:39:09;102329.39;;;9.47;65.36
60642;BME280;46837;52.446;-1.930;2023-02-12T01:40:10;102324.09;;;9.44;65.55
60642;BME280;46837;52.446;-1.930;2023-02-12T01:41:13;102322.33;;;9.42;65.72
60642;BME280;46837;52.446;-1.930;2023-02-12T01:42:12;102318.66;;;9.46;65.63
60642;BME280;46837;52.446;-1.930;2023-02-12T01:43:11;102320.14;;;9.46;65.66
60642;BME280;46837;52.446;-1.930;2023-02-12T01:46:10;102325.49;;;9.41;65.56
60642;BME280;46837;52.446;-1.930;2023-02-12T01:47:15;102325.74;;;9.41;65.74
60642;BME280;46837;52.446;-1.930;2023-02-12T01:48:09;102326.69;;;9.40;65.74
60642;BME280;46837;52.446;-1.930;2023-02-12T01:50:16;102318.73;;;9.48;65.43
60642;BME280;46837;52.446;-1.930;2023-02-12T01:51:11;102319.17;;;9.49;65.20
60642;BME280;46837;52.446;-1.930;2023-02-12T01:52:15;102317.39;;;9.51;65.13
60642;BME280;46837;52.446;-1.930;2023-02-12T01:53:09;102321.22;;;9.49;65.37
60642;BME280;46837;52.446;-1.930;2023-02-12T01:54:10;102327.60;;;9.50;65.41
60642;BME280;46837;52.446;-1.930;2023-02-12T01:55:09;102329.06;;;9.46;65.47
60642;BME280;46837;52.446;-1.930;2023-02-12T01:56:09;102329.68;;;9.45;65.50
60642;BME280;46837;52.446;-1.930;2023-02-12T01:57:09;102330.97;;;9.43;65.46
60642;BME280;46837;52.446;-1.930;2023-02-12T01:58:09;102324.01;;;9.42;65.34
60642;BME280;46837;52.446;-1.930;2023-02-12T01:59:09;102327.34;;;9.45;65.37
60642;BME280;46837;52.446;-1.930;2023-02-12T02:00:14;102323.78;;;9.46;65.26
60642;BME280;46837;52.446;-1.930;2023-02-12T02:01:12;102323.54;;;9.45;65.38
60642;BME280;46837;52.446;-1.930;2023-02-12T02:02:09;102326.44;;;9.46;65.17
60642;BME280;46837;52.446;-1.930;2023-02-12T02:03:09;102326.92;;;9.41;65.29
60642;BME280;46837;52.446;-1.930;2023-02-12T02:04:11;102323.52;;;9.37;65.55
60642;BME280;46837;52.446;-1.930;2023-02-12T02:05:09;102325.71;;;9.39;65.68
60642;BME280;46837;52.446;-1.930;2023-02-12T02:06:11;102321.64;;;9.36;65.72
60642;BME280;46837;52.446;-1.930;2023-02-12T02:07:09;102322.02;;;9.40;65.76
60642;BME280;46837;52.446;-1.930;2023-02-12T02:08:09;102321.99;;;9.39;65.63
60642;BME280;46837;52.446;-1.930;2023-02-12T02:09:09;102322.80;;;9.40;65.66
60642;BME280;46837;52.446;-1.930;2023-02-12T02:10:09;102322.89;;;9.39;65.70
60642;BME280;46837;52.446;-1.930;2023-02-12T02:11:13;102325.32;;;9.42;65.74
60642;BME280;46837;52.446;-1.930;2023-02-12T02:12:13;102323.05;;;9.44;65.66
60642;BME280;46837;52.446;-1.930;2023-02-12T02:13:13;102325.25;;;9.46;65.71
60642;BME280;46837;52.446;-1.930;2023-02-12T02:14:13;102323.79;;;9.45;65.64
60642;BME280;46837;52.446;-1.930;2023-02-12T02:15:09;102319.51;;;9.43;65.73
60642;BME280;46837;52.446;-1.930;2023-02-12T02:16:19;102317.33;;;9.44;65.69
60642;BME280;46837;52.446;-1.930;2023-02-12T02:18:18;102317.81;;;9.40;65.78
60642;BME280;46837;52.446;-1.930;2023-02-12T02:19:22;102318.61;;;9.42;65.67
60642;BME280;46837;52.446;-1.930;2023-02-12T02:20:20;102323.45;;;9.40;65.77
60642;BME280;46837;52.446;-1.930;2023-02-12T02:21:17;102325.10;;;9.38;66.00
60642;BME280;46837;52.446;-1.930;2023-02-12T02:22:16;102323.52;;;9.25;66.41
60642;BME280;46837;52.446;-1.930;2023-02-12T02:31:16;102316.61;;;9.25;66.35
60642;BME280;46837;52.446;-1.930;2023-02-12T02:32:11;102315.48;;;9.27;66.34
60642;BME280;46837;52.446;-1.930;2023-02-12T02:35:14;102313.18;;;9.35;66.34
60642;BME280;46837;52.446;-1.930;2023-02-12T02:40:13;102307.81;;;9.25;66.33
60642;BME280;46837;52.446;-1.930;2023-02-12T02:42:17;102305.52;;;9.24;66.43
60642;BME280;46837;52.446;-1.930;2023-02-12T02:44:14;102308.67;;;9.30;66.27
60642;BME280;46837;52.446;-1.930;2023-02-12T02:45:14;102311.72;;;9.33;66.24
60642;BME280;46837;52.446;-1.930;2023-02-12T02:46:13;102314.38;;;9.32;66.28
60642;BME280;46837;52.446;-1.930;2023-02-12T02:47:09;102314.79;;;9.33;66.32
60642;BME280;46837;52.446;-1.930;2023-02-12T02:48:15;102313.69;;;9.33;66.42
60642;BME280;46837;52.446;-1.930;2023-02-12T02:50:14;102313.86;;;9.32;66.54
60642;BME280;46837;52.446;-1.930;2023-02-12T02:51:13;102314.68;;;9.26;66.56
60642;BME280;46837;52.446;-1.930;2023-02-12T02:52:14;102310.11;;;9.23;66.72
60642;BME280;46837;52.446;-1.930;2023-02-12T02:54:20;102307.87;;;9.28;66.54
60642;BME280;46837;52.446;-1.930;2023-02-12T02:55:10;102311.44;;;9.32;66.51
60642;BME280;46837;52.446;-1.930;2023-02-12T02:56:12;102310.83;;;9.32;66.57
60642;BME280;46837;52.446;-1.930;2023-02-12T02:57:13;102312.27;;;9.30;66.42
60642;BME280;46837;52.446;-1.930;2023-02-12T02:58:16;102312.64;;;9.25;66.35
60642;BME280;46837;52.446;-1.930;2023-02-12T02:59:14;102311.69;;;9.26;66.39
60642;BME280;46837;52.446;-1.930;2023-02-12T03:00:17;102310.35;;;9.24;66.39
60642;BME280;46837;52.446;-1.930;2023-02-12T03:02:15;102309.59;;;9.21;66.54
60642;BME280;46837;52.446;-1.930;2023-02-12T03:05:34;102307.32;;;9.23;66.25
60642;BME280;46837;52.446;-1.930;2023-02-12T03:06:12;102304.78;;;9.26;66.23
60642;BME280;46837;52.446;-1.930;2023-02-12T03:07:20;102305.40;;;9.24;65.99
60642;BME280;46837;52.446;-1.930;2023-02-12T03:08:15;102306.38;;;9.25;65.98
60642;BME280;46837;52.446;-1.930;2023-02-12T03:09:20;102306.56;;;9.27;65.85
60642;BME280;46837;52.446;-1.930;2023-02-12T03:10:15;102306.74;;;9.26;65.93
60642;BME280;46837;52.446;-1.930;2023-02-12T03:11:14;102303.63;;;9.26;65.83
60642;BME280;46837;52.446;-1.930;2023-02-12T03:12:18;102304.84;;;9.28;65.77
60642;BME280;46837;52.446;-1.930;2023-02-12T03:13:12;102306.09;;;9.31;65.78
60642;BME280;46837;52.446;-1.930;2023-02-12T03:14:20;102305.86;;;9.34;65.75
60642;BME280;46837;52.446;-1.930;2023-02-12T03:16:17;102303.43;;;9.37;65.72
60642;BME280;46837;52.446;-1.930;2023-02-12T03:17:15;102306.30;;;9.36;65.77
60642;BME280;46837;52.446;-1.930;2023-02-12T03:18:11;102303.08;;;9.34;65.86
60642;BME280;46837;52.446;-1.930;2023-02-12T03:19:15;102304.65;;;9.32;65.78
60642;BME280;46837;52.446;-1.930;2023-02-12T03:20:17;102306.78;;;9.32;65.73
60642;BME280;46837;52.446;-1.930;2023-02-12T03:21:13;102302.89;;;9.33;65.79
60642;BME280;46837;52.446;-1.930;2023-02-12T03:22:11;102304.41;;;9.25;65.83
60642;BME280;46837;52.446;-1.930;2023-02-12T03:23:16;102308.38;;;9.26;65.95
60642;BME280;46837;52.446;-1.930;2023-02-12T03:25:14;102307.87;;;9.23;65.92
60642;BME280;46837;52.446;-1.930;2023-02-12T03:26:15;102304.18;;;9.24;65.94
60642;BME280;46837;52.446;-1.930;2023-02-12T03:27:17;102301.62;;;9.20;65.94
60642;BME280;46837;52.446;-1.930;2023-02-12T03:28:15;102299.44;;;9.22;65.99
60642;BME280;46837;52.446;-1.930;2023-02-12T03:29:09;102297.77;;;9.20;66.02
60642;BME280;46837;52.446;-1.930;2023-02-12T03:30:09;102299.52;;;9.23;65.97
60642;BME280;46837;52.446;-1.930;2023-02-12T03:33:21;102297.68;;;9.10;66.03
60642;BME280;46837;52.446;-1.930;2023-02-12T03:35:14;102300.68;;;9.08;66.10
60642;BME280;46837;52.446;-1.930;2023-02-12T03:36:19;102298.35;;;9.08;66.01
60642;BME280;46837;52.446;-1.930;2023-02-12T03:37:12;102297.71;;;9.12;66.11
60642;BME280;46837;52.446;-1.930;2023-02-12T03:38:19;102301.42;;;9.14;66.10
60642;BME280;46837;52.446;-1.930;2023-02-12T03:39:23;102298.19;;;9.14;66.18
60642;BME280;46837;52.446;-1.930;2023-02-12T03:40:19;102301.15;;;9.17;66.33
60642;BME280;46837;52.446;-1.930;2023-02-12T03:41:13;102301.94;;;9.16;66.07
60642;BME280;46837;52.446;-1.930;2023-02-12T03:44:19;102302.24;;;9.06;66.10
60642;BME280;46837;52.446;-1.930;2023-02-12T03:49:20;102298.25;;;9.05;65.88
60642;BME280;46837;52.446;-1.930;2023-02-12T03:50:20;102298.28;;;9.06;65.90
60642;BME280;46837;52.446;-1.930;2023-02-12T03:52:09;102302.73;;;9.13;65.88
60642;BME280;46837;52.446;-1.930;2023-02-12T03:53:09;102303.62;;;9.15;65.70
60642;BME280;46837;52.446;-1.930;2023-02-12T03:54:09;102302.87;;;9.12;65.69
60642;BME280;46837;52.446;-1.930;2023-02-12T03:55:09;102304.73;;;9.15;65.70
60642;BME280;46837;52.446;-1.930;2023-02-12T03:56:12;102303.79;;;9.13;65.58
60642;BME280;46837;52.446;-1.930;2023-02-12T03:57:14;102303.01;;;9.14;65.60
60642;BME280;46837;52.446;-1.930;2023-02-12T03:58:09;102306.64;;;9.16;65.74
60642;BME280;46837;52.446;-1.930;2023-02-12T03:59:09;102306.36;;;9.16;65.72
60642;BME280;46837;52.446;-1.930;2023-02-12T04:00:15;102301.97;;;9.11;65.97
60642;BME280;46837;52.446;-1.930;2023-02-12T04:01:09;102304.18;;;9.12;66.18
60642;BME280;46837;52.446;-1.930;2023-02-12T04:02:09;102302.54;;;9.12;66.09
60642;BME280;46837;52.446;-1.930;2023-02-12T04:03:09;102297.13;;;9.07;66.10
60642;BME280;46837;52.446;-1.930;2023-02-12T04:04:09;102302.80;;;9.03;66.17
60642;BME280;46837;52.446;-1.930;2023-02-12T04:06:20;102298.36;;;9.06;66.22
60642;BME280;46837;52.446;-1.930;2023-02-12T04:07:09;102297.85;;;9.10;66.20
60642;BME280;46837;52.446;-1.930;2023-02-12T04:08:09;102298.41;;;9.12;66.11
60642;BME280;46837;52.446;-1.930;2023-02-12T04:09:09;102296.84;;;9.13;66.03
60642;BME280;46837;52.446;-1.930;2023-02-12T04:10:09;102300.23;;;9.15;66.00
60642;BME280;46837;52.446;-1.930;2023-02-12T04:11:19;102301.56;;;9.17;65.96
60642;BME280;46837;52.446;-1.930;2023-02-12T04:14:19;102302.28;;;9.20;66.03
60642;BME280;46837;52.446;-1.930;2023-02-12T04:19:10;102304.64;;;9.27;65.88
60642;BME280;46837;52.446;-1.930;2023-02-12T04:21:17;102313.67;;;9.30;65.77
60642;BME280;46837;52.446;-1.930;2023-02-12T04:24:17;102312.17;;;9.27;65.88
60642;BME280;46837;52.446;-1.930;2023-02-12T04:29:17;102319.55;;;9.12;66.30
60642;BME280;46837;52.446;-1.930;2023-02-12T04:30:16;102314.46;;;9.09;66.32
60642;BME280;46837;52.446;-1.930;2023-02-12T04:31:18;102315.25;;;9.13;66.37
60642;BME280;46837;52.446;-1.930;2023-02-12T04:32:17;102313.96;;;9.10;66.29
60642;BME280;46837;52.446;-1.930;2023-02-12T04:33:09;102314.89;;;9.11;66.46
60642;BME280;46837;52.446;-1.930;2023-02-12T04:36:15;102321.50;;;9.09;66.52
60642;BME280;46837;52.446;-1.930;2023-02-12T04:39:16;102319.55;;;9.06;66.42
60642;BME280;46837;52.446;-1.930;2023-02-12T04:40:11;102321.47;;;9.00;66.50
60642;BME280;46837;52.446;-1.930;2023-02-12T04:41:09;102319.59;;;9.00;66.50
60642;BME280;46837;52.446;-1.930;2023-02-12T04:42:09;102321.47;;;8.99;66.47
60642;BME280;46837;52.446;-1.930;2023-02-12T04:43:09;102323.96;;;8.99;66.48
60642;BME280;46837;52.446;-1.930;2023-02-12T04:45:13;102320.66;;;8.91;66.40
60642;BME280;46837;52.446;-1.930;2023-02-12T04:46:09;102324.20;;;8.93;66.28
60642;BME280;46837;52.446;-1.930;2023-02-12T04:47:12;102320.24;;;8.92;65.96
60642;BME280;46837;52.446;-1.930;2023-02-12T04:48:09;102321.24;;;8.89;66.00
60642;BME280;46837;52.446;-1.930;2023-02-12T04:49:14;102323.86;;;8.88;66.13
60642;BME280;46837;52.446;-1.930;2023-02-12T04:50:09;102327.57;;;8.91;66.01
60642;BME280;46837;52.446;-1.930;2023-02-12T04:51:09;102327.12;;;8.90;65.89
60642;BME280;46837;52.446;-1.930;2023-02-12T04:52:09;102328.17;;;8.93;65.84
60642;BME280;46837;52.446;-1.930;2023-02-12T04:53:09;102327.64;;;8.93;65.83
60642;BME280;46837;52.446;-1.930;2023-02-12T04:54:09;102328.44;;;8.96;65.78
60642;BME280;46837;52.446;-1.930;2023-02-12T04:55:09;102325.08;;;8.98;65.83
60642;BME280;46837;52.446;-1.930;2023-02-12T04:56:11;102324.78;;;8.99;65.72
60642;BME280;46837;52.446;-1.930;2023-02-12T04:57:09;102327.11;;;9.00;65.70
60642;BME280;46837;52.446;-1.930;2023-02-12T04:58:09;102323.07;;;8.99;65.57
60642;BME280;46837;52.446;-1.930;2023-02-12T04:59:09;102323.55;;;8.99;65.65
60642;BME280;46837;52.446;-1.930;2023-02-12T05:00:11;102323.75;;;9.01;65.73
60642;BME280;46837;52.446;-1.930;2023-02-12T05:01:09;102322.41;;;9.00;65.83
60642;BME280;46837;52.446;-1.930;2023-02-12T05:02:09;102324.14;;;9.03;65.66
60642;BME280;46837;52.446;-1.930;2023-02-12T05:03:09;102319.09;;;9.07;65.62
60642;BME280;46837;52.446;-1.930;2023-02-12T05:04:09;102316.37;;;9.05;65.38
60642;BME280;46837;52.446;-1.930;2023-02-12T05:05:09;102316.66;;;9.04;65.50
60642;BME280;46837;52.446;-1.930;2023-02-12T05:06:09;102313.33;;;9.07;65.50
60642;BME280;46837;52.446;-1.930;2023-02-12T05:07:09;102319.20;;;9.03;65.43
60642;BME280;46837;52.446;-1.930;2023-02-12T05:08:09;102320.25;;;9.05;65.24
60642;BME280;46837;52.446;-1.930;2023-02-12T05:09:09;102321.30;;;9.06;64.88
60642;BME280;46837;52.446;-1.930;2023-02-12T05:10:09;102319.15;;;9.05;64.79
60642;BME280;46837;52.446;-1.930;2023-02-12T05:11:09;102318.91;;;9.04;64.92
60642;BME280;46837;52.446;-1.930;2023-02-12T05:12:09;102315.03;;;9.02;64.95
60642;BME280;46837;52.446;-1.930;2023-02-12T05:13:09;102314.39;;;9.01;64.88
60642;BME280;46837;52.446;-1.930;2023-02-12T05:14:09;102312.93;;;8.99;64.99
60642;BME280;46837;52.446;-1.930;2023-02-12T05:15:09;102311.87;;;8.97;65.00
60642;BME280;46837;52.446;-1.930;2023-02-12T05:16:09;102314.62;;;8.96;65.03
60642;BME280;46837;52.446;-1.930;2023-02-12T05:17:09;102311.39;;;8.96;65.12
60642;BME280;46837;52.446;-1.930;2023-02-12T05:18:09;102309.05;;;8.98;65.03
60642;BME280;46837;52.446;-1.930;2023-02-12T05:19:09;102311.49;;;8.99;64.82
60642;BME280;46837;52.446;-1.930;2023-02-12T05:20:09;102310.53;;;8.95;64.82
60642;BME280;46837;52.446;-1.930;2023-02-12T05:21:09;102309.05;;;8.97;64.74
60642;BME280;46837;52.446;-1.930;2023-02-12T05:22:09;102308.06;;;8.99;64.58
60642;BME280;46837;52.446;-1.930;2023-02-12T05:23:09;102306.70;;;9.01;64.48
60642;BME280;46837;52.446;-1.930;2023-02-12T05:24:09;102309.47;;;9.02;64.28
60642;BME280;46837;52.446;-1.930;2023-02-12T05:25:09;102304.33;;;9.06;64.25
60642;BME280;46837;52.446;-1.930;2023-02-12T05:26:13;102305.62;;;9.09;64.18
60642;BME280;46837;52.446;-1.930;2023-02-12T05:27:09;102308.03;;;9.10;64.34
60642;BME280;46837;52.446;-1.930;2023-02-12T05:28:09;102304.45;;;9.07;64.18
60642;BME280;46837;52.446;-1.930;2023-02-12T05:29:09;102304.67;;;9.11;64.24
60642;BME280;46837;52.446;-1.930;2023-02-12T05:30:09;102304.46;;;9.12;64.02
60642;BME280;46837;52.446;-1.930;2023-02-12T05:31:09;102304.72;;;9.10;63.90
60642;BME280;46837;52.446;-1.930;2023-02-12T05:32:09;102301.75;;;9.07;63.83
60642;BME280;46837;52.446;-1.930;2023-02-12T05:33:09;102301.04;;;9.09;63.90
60642;BME280;46837;52.446;-1.930;2023-02-12T05:34:10;102304.65;;;9.08;63.87
60642;BME280;46837;52.446;-1.930;2023-02-12T05:35:09;102301.38;;;9.09;63.87
60642;BME280;46837;52.446;-1.930;2023-02-12T05:36:10;102301.79;;;9.06;64.37
60642;BME280;46837;52.446;-1.930;2023-02-12T05:37:09;102302.73;;;9.07;64.27
60642;BME280;46837;52.446;-1.930;2023-02-12T05:38:09;102301.51;;;9.06;64.14
60642;BME280;46837;52.446;-1.930;2023-02-12T05:39:09;102299.92;;;9.05;64.21
60642;BME280;46837;52.446;-1.930;2023-02-12T05:40:09;102299.30;;;9.06;64.32
60642;BME280;46837;52.446;-1.930;2023-02-12T05:41:13;102299.14;;;9.05;64.35
60642;BME280;46837;52.446;-1.930;2023-02-12T05:42:09;102300.38;;;9.05;64.32
60642;BME280;46837;52.446;-1.930;2023-02-12T05:43:09;102296.84;;;9.07;64.39
60642;BME280;46837;52.446;-1.930;2023-02-12T05:44:09;102292.70;;;9.09;64.33
60642;BME280;46837;52.446;-1.930;2023-02-12T05:45:09;102290.93;;;9.05;64.34
60642;BME280;46837;52.446;-1.930;2023-02-12T05:46:09;102291.64;;;9.02;64.51
60642;BME280;46837;52.446;-1.930;2023-02-12T05:47:09;102293.95;;;8.99;64.64
60642;BME280;46837;52.446;-1.930;2023-02-12T05:48:09;102300.06;;;8.95;64.54
60642;BME280;46837;52.446;-1.930;2023-02-12T05:49:09;102298.00;;;8.98;64.62
60642;BME280;46837;52.446;-1.930;2023-02-12T05:50:09;102297.73;;;8.95;64.70
60642;BME280;46837;52.446;-1.930;2023-02-12T05:51:13;102295.13;;;8.99;64.67
60642;BME280;46837;52.446;-1.930;2023-02-12T05:52:09;102291.44;;;9.01;64.60
60642;BME280;46837;52.446;-1.930;2023-02-12T05:53:09;102287.50;;;9.02;64.60
60642;BME280;46837;52.446;-1.930;2023-02-12T05:54:09;102286.96;;;9.04;64.57
60642;BME280;46837;52.446;-1.930;2023-02-12T05:55:09;102283.88;;;9.01;64.60
60642;BME280;46837;52.446;-1.930;2023-02-12T05:56:16;102292.48;;;9.04;64.63
60642;BME280;46837;52.446;-1.930;2023-02-12T05:57:09;102290.08;;;9.03;64.66
60642;BME280;46837;52.446;-1.930;2023-02-12T05:58:09;102295.03;;;9.02;64.76
60642;BME280;46837;52.446;-1.930;2023-02-12T05:59:13;102290.32;;;9.04;64.87
60642;BME280;46837;52.446;-1.930;2023-02-12T06:00:09;102284.05;;;9.05;64.71
60642;BME280;46837;52.446;-1.930;2023-02-12T06:01:20;102285.01;;;9.09;64.71
60642;BME280;46837;52.446;-1.930;2023-02-12T06:02:09;102282.59;;;9.02;64.75
60642;BME280;46837;52.446;-1.930;2023-02-12T06:03:09;102285.21;;;9.02;64.82
60642;BME280;46837;52.446;-1.930;2023-02-12T06:04:14;102288.25;;;9.02;64.71
60642;BME280;46837;52.446;-1.930;2023-02-12T06:05:09;102286.29;;;9.02;64.70
60642;BME280;46837;52.446;-1.930;2023-02-12T06:06:09;102287.09;;;9.04;64.71
60642;BME280;46837;52.446;-1.930;2023-02-12T06:07:09;102285.49;;;9.04;64.88
60642;BME280;46837;52.446;-1.930;2023-02-12T06:08:09;102280.96;;;9.02;64.88
60642;BME280;46837;52.446;-1.930;2023-02-12T06:09:09;102283.95;;;9.02;64.88